sensor_id;sensor_type;location;lat;lon;timestamp;P1;durP1;ratioP1;P2;durP2;ratioP2
14125;SDS011;7141;49.484;11.242;2023-03-20T00:00:49;10.37;;;8.00;;
14125;SDS011;7141;49.484;11.242;2023-03-20T00:03:16;10.77;;;7.07;;
14125;SDS011;7141;49.484;11.242;2023-03-20T00:05:42;10.10;;;7.17;;
14125;SDS011;7141;49.484;11.242;2023-03-20T00:08:08;10.07;;;8.17;;
14125;SDS011;7141;49.484;11.242;2023-03-20T00:10:39;9.63;;;7.40;;
14125;SDS011;7141;49.484;11.242;2023-03-20T00:13:06;8.77;;;6.90;;
14125;SDS011;7141;49.484;11.242;2023-03-20T00:15:36;10.43;;;7.67;;
14125;SDS011;7141;49.484;11.242;2023-03-20T00:18:03;8.93;;;6.73;;
14125;SDS011;7141;49.484;11.242;2023-03-20T00:20:30;8.97;;;6.93;;
14125;SDS011;7141;49.484;11.242;2023-03-20T00:22:56;8.73;;;6.83;;
14125;SDS011;7141;49.484;11.242;2023-03-20T00:25:23;9.20;;;6.93;;
14125;SDS011;7141;49.484;11.242;2023-03-20T00:27:49;8.80;;;7.47;;
14125;SDS011;7141;49.484;11.242;2023-03-20T00:32:47;9.03;;;7.30;;
14125;SDS011;7141;49.484;11.242;2023-03-20T00:35:23;8.73;;;7.00;;
14125;SDS011;7141;49.484;11.242;2023-03-20T00:37:50;8.80;;;6.47;;
14125;SDS011;7141;49.484;11.242;2023-03-20T00:40:16;10.03;;;7.03;;
14125;SDS011;7141;49.484;11.242;2023-03-20T00:42:43;9.77;;;6.67;;
14125;SDS011;7141;49.484;11.242;2023-03-20T00:45:11;9.23;;;6.30;;
14125;SDS011;7141;49.484;11.242;2023-03-20T00:47:38;10.13;;;6.53;;
14125;SDS011;7141;49.484;11.242;2023-03-20T00:50:06;12.23;;;6.50;;
14125;SDS011;7141;49.484;11.242;2023-03-20T00:52:32;7.20;;;6.20;;
14125;SDS011;7141;49.484;11.242;2023-03-20T00:54:58;9.07;;;6.33;;
14125;SDS011;7141;49.484;11.242;2023-03-20T00:57:34;7.03;;;6.33;;
14125;SDS011;7141;49.484;11.242;2023-03-20T01:00:10;9.10;;;6.37;;
14125;SDS011;7141;49.484;11.242;2023-03-20T01:02:41;10.20;;;6.80;;
14125;SDS011;7141;49.484;11.242;2023-03-20T01:05:07;6.83;;;5.57;;
14125;SDS011;7141;49.484;11.242;2023-03-20T01:07:33;8.40;;;6.10;;
14125;SDS011;7141;49.484;11.242;2023-03-20T01:09:59;7.00;;;5.73;;
14125;SDS011;7141;49.484;11.242;2023-03-20T01:12:25;9.63;;;6.27;;
14125;SDS011;7141;49.484;11.242;2023-03-20T01:14:52;7.17;;;5.27;;
14125;SDS011;7141;49.484;11.242;2023-03-20T01:17:20;7.47;;;5.47;;
14125;SDS011;7141;49.484;11.242;2023-03-20T01:19:47;6.50;;;5.00;;
14125;SDS011;7141;49.484;11.242;2023-03-20T01:22:13;7.97;;;5.50;;
14125;SDS011;7141;49.484;11.242;2023-03-20T01:24:39;5.83;;;5.07;;
14125;SDS011;7141;49.484;11.242;2023-03-20T01:27:16;6.90;;;5.40;;
14125;SDS011;7141;49.484;11.242;2023-03-20T01:29:42;6.47;;;5.83;;
14125;SDS011;7141;49.484;11.242;2023-03-20T01:32:10;8.30;;;5.80;;
14125;SDS011;7141;49.484;11.242;2023-03-20T01:34:36;7.93;;;5.83;;
14125;SDS011;7141;49.484;11.242;2023-03-20T01:37:02;7.63;;;5.27;;
14125;SDS011;7141;49.484;11.242;2023-03-20T01:39:32;9.70;;;5.83;;
14125;SDS011;7141;49.484;11.242;2023-03-20T01:41:59;7.97;;;5.50;;
14125;SDS011;7141;49.484;11.242;2023-03-20T01:44:27;8.00;;;5.93;;
14125;SDS011;7141;49.484;11.242;2023-03-20T01:46:53;10.77;;;7.17;;
14125;SDS011;7141;49.484;11.242;2023-03-20T01:51:46;8.87;;;6.47;;
14125;SDS011;7141;49.484;11.242;2023-03-20T01:56:46;7.43;;;6.63;;
14125;SDS011;7141;49.484;11.242;2023-03-20T01:59:15;8.83;;;6.50;;
14125;SDS011;7141;49.484;11.242;2023-03-20T02:01:42;9.33;;;6.60;;
14125;SDS011;7141;49.484;11.242;2023-03-20T02:04:09;7.83;;;6.20;;
14125;SDS011;7141;49.484;11.242;2023-03-20T02:06:36;8.40;;;6.80;;
14125;SDS011;7141;49.484;11.242;2023-03-20T02:09:04;8.53;;;6.50;;
14125;SDS011;7141;49.484;11.242;2023-03-20T02:11:30;8.00;;;6.77;;
14125;SDS011;7141;49.484;11.242;2023-03-20T02:13:57;8.07;;;6.43;;
14125;SDS011;7141;49.484;11.242;2023-03-20T02:16:24;8.27;;;5.77;;
14125;SDS011;7141;49.484;11.242;2023-03-20T02:18:50;6.50;;;5.77;;
14125;SDS011;7141;49.484;11.242;2023-03-20T02:37:16;7.10;;;5.63;;
14125;SDS011;7141;49.484;11.242;2023-03-20T02:39:49;6.60;;;5.80;;
14125;SDS011;7141;49.484;11.242;2023-03-20T02:42:21;6.33;;;5.50;;
14125;SDS011;7141;49.484;11.242;2023-03-20T02:50:18;6.60;;;5.70;;
14125;SDS011;7141;49.484;11.242;2023-03-20T02:58:02;8.37;;;5.93;;
14125;SDS011;7141;49.484;11.242;2023-03-20T03:00:33;7.10;;;5.77;;
14125;SDS011;7141;49.484;11.242;2023-03-20T03:03:05;7.37;;;5.83;;
14125;SDS011;7141;49.484;11.242;2023-03-20T03:05:40;6.03;;;5.47;;
14125;SDS011;7141;49.484;11.242;2023-03-20T03:08:07;6.00;;;5.13;;
14125;SDS011;7141;49.484;11.242;2023-03-20T03:10:35;8.30;;;6.07;;
14125;SDS011;7141;49.484;11.242;2023-03-20T03:13:02;8.77;;;5.53;;
14125;SDS011;7141;49.484;11.242;2023-03-20T03:17:57;7.67;;;5.57;;
14125;SDS011;7141;49.484;11.242;2023-03-20T03:20:25;7.37;;;5.47;;
14125;SDS011;7141;49.484;11.242;2023-03-20T03:22:52;6.60;;;5.90;;
14125;SDS011;7141;49.484;11.242;2023-03-20T03:25:20;9.83;;;5.60;;
14125;SDS011;7141;49.484;11.242;2023-03-20T03:27:48;9.33;;;6.20;;
14125;SDS011;7141;49.484;11.242;2023-03-20T03:30:27;6.47;;;5.87;;
14125;SDS011;7141;49.484;11.242;2023-03-20T03:33:01;8.30;;;5.90;;
14125;SDS011;7141;49.484;11.242;2023-03-20T03:35:31;10.10;;;6.13;;
14125;SDS011;7141;49.484;11.242;2023-03-20T03:43:17;8.13;;;5.97;;
14125;SDS011;7141;49.484;11.242;2023-03-20T03:45:47;7.37;;;6.67;;
14125;SDS011;7141;49.484;11.242;2023-03-20T03:48:21;7.27;;;5.87;;
14125;SDS011;7141;49.484;11.242;2023-03-20T03:50:49;7.70;;;5.93;;
14125;SDS011;7141;49.484;11.242;2023-03-20T03:53:19;7.07;;;5.83;;
14125;SDS011;7141;49.484;11.242;2023-03-20T03:55:49;7.10;;;5.83;;
14125;SDS011;7141;49.484;11.242;2023-03-20T04:00:44;6.87;;;6.13;;
14125;SDS011;7141;49.484;11.242;2023-03-20T04:03:12;6.37;;;5.77;;
14125;SDS011;7141;49.484;11.242;2023-03-20T04:05:40;9.03;;;6.33;;
14125;SDS011;7141;49.484;11.242;2023-03-20T04:08:07;7.80;;;7.00;;
14125;SDS011;7141;49.484;11.242;2023-03-20T04:10:33;9.67;;;6.83;;
14125;SDS011;7141;49.484;11.242;2023-03-20T04:12:59;8.57;;;6.93;;
14125;SDS011;7141;49.484;11.242;2023-03-20T04:15:25;8.23;;;6.33;;
14125;SDS011;7141;49.484;11.242;2023-03-20T04:17:51;7.93;;;6.37;;
14125;SDS011;7141;49.484;11.242;2023-03-20T04:20:18;10.17;;;6.77;;
14125;SDS011;7141;49.484;11.242;2023-03-20T04:22:44;9.20;;;6.43;;
14125;SDS011;7141;49.484;11.242;2023-03-20T04:25:15;7.77;;;6.87;;
14125;SDS011;7141;49.484;11.242;2023-03-20T04:27:41;7.87;;;6.23;;
14125;SDS011;7141;49.484;11.242;2023-03-20T04:30:07;7.77;;;6.80;;
14125;SDS011;7141;49.484;11.242;2023-03-20T04:32:33;11.63;;;7.67;;
14125;SDS011;7141;49.484;11.242;2023-03-20T04:34:59;8.50;;;7.60;;
14125;SDS011;7141;49.484;11.242;2023-03-20T04:37:25;13.30;;;10.40;;
14125;SDS011;7141;49.484;11.242;2023-03-20T04:39:51;14.83;;;10.80;;
14125;SDS011;7141;49.484;11.242;2023-03-20T04:42:17;15.37;;;10.80;;
14125;SDS011;7141;49.484;11.242;2023-03-20T04:44:43;14.40;;;11.03;;
14125;SDS011;7141;49.484;11.242;2023-03-20T04:47:09;13.53;;;10.60;;
14125;SDS011;7141;49.484;11.242;2023-03-20T04:49:35;12.60;;;9.93;;
14125;SDS011;7141;49.484;11.242;2023-03-20T04:52:01;11.13;;;9.03;;
14125;SDS011;7141;49.484;11.242;2023-03-20T04:54:27;11.50;;;8.87;;
14125;SDS011;7141;49.484;11.242;2023-03-20T04:56:53;12.27;;;9.37;;
14125;SDS011;7141;49.484;11.242;2023-03-20T04:59:19;14.43;;;10.67;;
14125;SDS011;7141;49.484;11.242;2023-03-20T05:01:45;12.30;;;10.10;;
14125;SDS011;7141;49.484;11.242;2023-03-20T05:04:11;11.30;;;9.50;;
14125;SDS011;7141;49.484;11.242;2023-03-20T05:06:37;10.87;;;9.43;;
14125;SDS011;7141;49.484;11.242;2023-03-20T05:09:03;11.80;;;9.90;;
14125;SDS011;7141;49.484;11.242;2023-03-20T05:11:29;13.83;;;10.20;;
14125;SDS011;7141;49.484;11.242;2023-03-20T05:13:55;13.43;;;11.17;;
14125;SDS011;7141;49.484;11.242;2023-03-20T05:16:21;13.87;;;9.77;;
14125;SDS011;7141;49.484;11.242;2023-03-20T05:18:47;13.57;;;10.83;;
14125;SDS011;7141;49.484;11.242;2023-03-20T05:21:13;14.37;;;10.60;;
14125;SDS011;7141;49.484;11.242;2023-03-20T05:23:39;17.80;;;11.50;;
14125;SDS011;7141;49.484;11.242;2023-03-20T05:26:06;18.00;;;10.90;;
14125;SDS011;7141;49.484;11.242;2023-03-20T05:28:32;13.77;;;10.20;;
14125;SDS011;7141;49.484;11.242;2023-03-20T05:30:57;14.00;;;11.17;;
14125;SDS011;7141;49.484;11.242;2023-03-20T05:33:23;14.60;;;11.13;;
14125;SDS011;7141;49.484;11.242;2023-03-20T05:35:50;13.43;;;11.07;;
14125;SDS011;7141;49.484;11.242;2023-03-20T05:38:16;12.57;;;9.90;;
14125;SDS011;7141;49.484;11.242;2023-03-20T05:40:42;16.43;;;10.80;;
14125;SDS011;7141;49.484;11.242;2023-03-20T05:43:08;12.87;;;9.63;;
14125;SDS011;7141;49.484;11.242;2023-03-20T05:45:34;12.17;;;9.40;;
14125;SDS011;7141;49.484;11.242;2023-03-20T05:48:00;11.73;;;10.07;;
14125;SDS011;7141;49.484;11.242;2023-03-20T05:50:26;12.30;;;9.57;;
14125;SDS011;7141;49.484;11.242;2023-03-20T05:52:52;12.17;;;9.17;;
14125;SDS011;7141;49.484;11.242;2023-03-20T05:55:17;16.43;;;12.30;;
14125;SDS011;7141;49.484;11.242;2023-03-20T05:57:43;15.23;;;11.47;;
14125;SDS011;7141;49.484;11.242;2023-03-20T06:00:10;16.93;;;11.57;;
14125;SDS011;7141;49.484;11.242;2023-03-20T06:02:36;13.63;;;10.73;;
14125;SDS011;7141;49.484;11.242;2023-03-20T06:05:02;15.23;;;11.30;;
14125;SDS011;7141;49.484;11.242;2023-03-20T06:07:29;14.97;;;10.93;;
14125;SDS011;7141;49.484;11.242;2023-03-20T06:09:55;14.53;;;11.27;;
14125;SDS011;7141;49.484;11.242;2023-03-20T06:12:21;15.03;;;11.23;;
14125;SDS011;7141;49.484;11.242;2023-03-20T06:14:47;16.63;;;12.77;;
14125;SDS011;7141;49.484;11.242;2023-03-20T06:17:13;14.80;;;12.27;;
14125;SDS011;7141;49.484;11.242;2023-03-20T06:19:39;14.67;;;11.93;;
14125;SDS011;7141;49.484;11.242;2023-03-20T06:22:05;16.53;;;12.10;;
14125;SDS011;7141;49.484;11.242;2023-03-20T06:24:31;14.47;;;11.23;;
14125;SDS011;7141;49.484;11.242;2023-03-20T06:26:58;11.83;;;10.27;;
14125;SDS011;7141;49.484;11.242;2023-03-20T06:29:24;14.33;;;11.20;;
14125;SDS011;7141;49.484;11.242;2023-03-20T06:31:50;14.97;;;10.83;;
14125;SDS011;7141;49.484;11.242;2023-03-20T06:34:16;15.60;;;11.83;;
14125;SDS011;7141;49.484;11.242;2023-03-20T06:36:42;14.27;;;10.73;;
14125;SDS011;7141;49.484;11.242;2023-03-20T06:39:08;15.17;;;10.40;;
14125;SDS011;7141;49.484;11.242;2023-03-20T06:41:34;13.60;;;11.40;;
14125;SDS011;7141;49.484;11.242;2023-03-20T06:44:00;13.23;;;11.50;;
14125;SDS011;7141;49.484;11.242;2023-03-20T06:46:26;13.17;;;11.20;;
14125;SDS011;7141;49.484;11.242;2023-03-20T06:48:52;11.70;;;9.97;;
14125;SDS011;7141;49.484;11.242;2023-03-20T06:51:18;13.47;;;10.43;;
14125;SDS011;7141;49.484;11.242;2023-03-20T06:53:44;12.73;;;11.10;;
14125;SDS011;7141;49.484;11.242;2023-03-20T06:56:10;14.50;;;11.53;;
14125;SDS011;7141;49.484;11.242;2023-03-20T06:58:37;12.47;;;11.10;;
14125;SDS011;7141;49.484;11.242;2023-03-20T07:01:12;12.97;;;10.70;;
14125;SDS011;7141;49.484;11.242;2023-03-20T07:03:39;14.00;;;12.20;;
14125;SDS011;7141;49.484;11.242;2023-03-20T07:06:06;14.80;;;11.43;;
14125;SDS011;7141;49.484;11.242;2023-03-20T07:08:32;15.10;;;12.13;;
14125;SDS011;7141;49.484;11.242;2023-03-20T07:10:58;14.67;;;11.37;;
14125;SDS011;7141;49.484;11.242;2023-03-20T07:13:24;12.63;;;10.50;;
14125;SDS011;7141;49.484;11.242;2023-03-20T07:15:50;15.40;;;11.50;;
14125;SDS011;7141;49.484;11.242;2023-03-20T07:18:16;17.07;;;12.67;;
14125;SDS011;7141;49.484;11.242;2023-03-20T07:20:43;15.17;;;11.87;;
14125;SDS011;7141;49.484;11.242;2023-03-20T07:23:09;15.97;;;12.67;;
14125;SDS011;7141;49.484;11.242;2023-03-20T07:25:35;12.17;;;10.87;;
14125;SDS011;7141;49.484;11.242;2023-03-20T07:28:03;14.57;;;12.07;;
14125;SDS011;7141;49.484;11.242;2023-03-20T07:30:30;15.77;;;11.93;;
14125;SDS011;7141;49.484;11.242;2023-03-20T07:32:56;13.23;;;11.83;;
14125;SDS011;7141;49.484;11.242;2023-03-20T07:35:23;16.53;;;12.67;;
14125;SDS011;7141;49.484;11.242;2023-03-20T07:37:49;14.93;;;11.87;;
14125;SDS011;7141;49.484;11.242;2023-03-20T07:40:15;14.23;;;12.33;;
14125;SDS011;7141;49.484;11.242;2023-03-20T07:42:41;16.13;;;12.13;;
14125;SDS011;7141;49.484;11.242;2023-03-20T07:45:07;14.83;;;12.07;;
14125;SDS011;7141;49.484;11.242;2023-03-20T07:47:33;15.73;;;13.00;;
14125;SDS011;7141;49.484;11.242;2023-03-20T07:49:59;15.60;;;12.00;;
14125;SDS011;7141;49.484;11.242;2023-03-20T07:52:25;15.00;;;12.33;;
14125;SDS011;7141;49.484;11.242;2023-03-20T07:54:51;13.10;;;11.60;;
14125;SDS011;7141;49.484;11.242;2023-03-20T07:57:17;14.07;;;12.00;;
14125;SDS011;7141;49.484;11.242;2023-03-20T07:59:43;12.40;;;10.60;;
14125;SDS011;7141;49.484;11.242;2023-03-20T08:02:15;13.23;;;11.73;;
14125;SDS011;7141;49.484;11.242;2023-03-20T08:04:42;12.77;;;11.47;;
14125;SDS011;7141;49.484;11.242;2023-03-20T08:07:08;14.00;;;10.83;;
14125;SDS011;7141;49.484;11.242;2023-03-20T08:09:34;16.07;;;11.50;;
14125;SDS011;7141;49.484;11.242;2023-03-20T08:12:00;20.63;;;10.80;;
14125;SDS011;7141;49.484;11.242;2023-03-20T08:14:26;15.87;;;10.47;;
14125;SDS011;7141;49.484;11.242;2023-03-20T08:16:52;16.00;;;11.17;;
14125;SDS011;7141;49.484;11.242;2023-03-20T08:19:18;15.57;;;10.03;;
14125;SDS011;7141;49.484;11.242;2023-03-20T08:21:44;16.13;;;10.80;;
14125;SDS011;7141;49.484;11.242;2023-03-20T08:24:10;31.30;;;14.17;;
14125;SDS011;7141;49.484;11.242;2023-03-20T08:26:36;34.93;;;13.40;;
14125;SDS011;7141;49.484;11.242;2023-03-20T08:29:02;14.10;;;9.93;;
14125;SDS011;7141;49.484;11.242;2023-03-20T08:31:28;16.67;;;10.13;;
14125;SDS011;7141;49.484;11.242;2023-03-20T08:33:55;18.03;;;9.60;;
14125;SDS011;7141;49.484;11.242;2023-03-20T08:36:21;10.20;;;8.27;;
14125;SDS011;7141;49.484;11.242;2023-03-20T08:38:48;8.43;;;7.57;;
14125;SDS011;7141;49.484;11.242;2023-03-20T08:41:14;8.37;;;7.50;;
14125;SDS011;7141;49.484;11.242;2023-03-20T08:43:40;8.50;;;7.47;;
14125;SDS011;7141;49.484;11.242;2023-03-20T08:46:06;7.93;;;7.07;;
14125;SDS011;7141;49.484;11.242;2023-03-20T08:48:32;8.63;;;7.57;;
14125;SDS011;7141;49.484;11.242;2023-03-20T08:50:58;7.63;;;6.43;;
14125;SDS011;7141;49.484;11.242;2023-03-20T08:53:25;7.90;;;6.47;;
14125;SDS011;7141;49.484;11.242;2023-03-20T08:55:51;7.03;;;6.33;;
14125;SDS011;7141;49.484;11.242;2023-03-20T08:58:18;6.93;;;6.23;;
14125;SDS011;7141;49.484;11.242;2023-03-20T09:00:44;8.23;;;7.43;;
14125;SDS011;7141;49.484;11.242;2023-03-20T09:03:11;7.33;;;6.63;;
14125;SDS011;7141;49.484;11.242;2023-03-20T09:05:38;6.40;;;5.73;;
14125;SDS011;7141;49.484;11.242;2023-03-20T09:08:05;7.87;;;5.90;;
14125;SDS011;7141;49.484;11.242;2023-03-20T09:10:31;6.80;;;6.10;;
14125;SDS011;7141;49.484;11.242;2023-03-20T09:12:58;6.27;;;5.50;;
14125;SDS011;7141;49.484;11.242;2023-03-20T09:15:24;6.63;;;5.93;;
14125;SDS011;7141;49.484;11.242;2023-03-20T09:17:50;6.00;;;5.40;;
14125;SDS011;7141;49.484;11.242;2023-03-20T09:20:16;7.13;;;5.43;;
14125;SDS011;7141;49.484;11.242;2023-03-20T09:22:42;6.80;;;6.03;;
14125;SDS011;7141;49.484;11.242;2023-03-20T09:25:09;5.30;;;4.80;;
14125;SDS011;7141;49.484;11.242;2023-03-20T09:27:36;5.97;;;5.37;;
14125;SDS011;7141;49.484;11.242;2023-03-20T09:30:02;6.20;;;4.87;;
14125;SDS011;7141;49.484;11.242;2023-03-20T09:32:28;7.57;;;5.70;;
14125;SDS011;7141;49.484;11.242;2023-03-20T09:34:54;5.10;;;4.20;;
14125;SDS011;7141;49.484;11.242;2023-03-20T09:37:20;5.23;;;4.17;;
14125;SDS011;7141;49.484;11.242;2023-03-20T09:39:46;4.00;;;3.60;;
14125;SDS011;7141;49.484;11.242;2023-03-20T09:42:34;3.90;;;3.50;;
14125;SDS011;7141;49.484;11.242;2023-03-20T09:47:50;4.57;;;3.90;;
14125;SDS011;7141;49.484;11.242;2023-03-20T09:52:52;4.77;;;3.83;;
14125;SDS011;7141;49.484;11.242;2023-03-20T09:55:20;4.13;;;3.37;;
14125;SDS011;7141;49.484;11.242;2023-03-20T09:57:55;4.50;;;3.57;;
14125;SDS011;7141;49.484;11.242;2023-03-20T10:00:26;5.17;;;3.73;;
14125;SDS011;7141;49.484;11.242;2023-03-20T10:03:03;4.50;;;3.77;;
14125;SDS011;7141;49.484;11.242;2023-03-20T10:05:34;6.07;;;3.53;;
14125;SDS011;7141;49.484;11.242;2023-03-20T10:08:02;4.27;;;3.77;;
14125;SDS011;7141;49.484;11.242;2023-03-20T10:15:58;4.43;;;3.80;;
14125;SDS011;7141;49.484;11.242;2023-03-20T10:18:26;5.17;;;4.13;;
14125;SDS011;7141;49.484;11.242;2023-03-20T10:21:01;4.13;;;3.73;;
14125;SDS011;7141;49.484;11.242;2023-03-20T10:23:39;5.53;;;4.10;;
14125;SDS011;7141;49.484;11.242;2023-03-20T10:26:13;4.47;;;3.60;;
14125;SDS011;7141;49.484;11.242;2023-03-20T10:28:45;4.67;;;3.80;;
14125;SDS011;7141;49.484;11.242;2023-03-20T10:39:04;3.73;;;3.40;;
14125;SDS011;7141;49.484;11.242;2023-03-20T10:41:32;5.20;;;3.70;;
14125;SDS011;7141;49.484;11.242;2023-03-20T10:44:00;3.60;;;3.23;;
14125;SDS011;7141;49.484;11.242;2023-03-20T10:54:04;3.90;;;3.50;;
14125;SDS011;7141;49.484;11.242;2023-03-20T10:56:35;6.10;;;3.70;;
14125;SDS011;7141;49.484;11.242;2023-03-20T10:59:06;4.13;;;3.30;;
14125;SDS011;7141;49.484;11.242;2023-03-20T11:01:32;4.20;;;3.40;;
14125;SDS011;7141;49.484;11.242;2023-03-20T11:03:58;4.50;;;3.60;;
14125;SDS011;7141;49.484;11.242;2023-03-20T11:06:25;4.70;;;3.50;;
14125;SDS011;7141;49.484;11.242;2023-03-20T11:08:52;5.03;;;3.23;;
14125;SDS011;7141;49.484;11.242;2023-03-20T11:11:25;3.17;;;2.70;;
14125;SDS011;7141;49.484;11.242;2023-03-20T11:13:52;3.60;;;3.30;;
14125;SDS011;7141;49.484;11.242;2023-03-20T11:18:47;4.47;;;3.00;;
14125;SDS011;7141;49.484;11.242;2023-03-20T11:21:16;3.10;;;2.80;;
14125;SDS011;7141;49.484;11.242;2023-03-20T11:23:43;3.20;;;2.90;;
14125;SDS011;7141;49.484;11.242;2023-03-20T11:26:13;3.80;;;2.73;;
14125;SDS011;7141;49.484;11.242;2023-03-20T11:34:11;3.27;;;2.83;;
14125;SDS011;7141;49.484;11.242;2023-03-20T11:36:25;5.07;;;2.90;;
14125;SDS011;7141;49.484;11.242;2023-03-20T11:38:52;6.70;;;3.20;;
14125;SDS011;7141;49.484;11.242;2023-03-20T11:41:20;6.63;;;3.70;;
14125;SDS011;7141;49.484;11.242;2023-03-20T11:43:47;3.43;;;2.80;;
14125;SDS011;7141;49.484;11.242;2023-03-20T11:46:13;4.37;;;3.23;;
14125;SDS011;7141;49.484;11.242;2023-03-20T11:48:40;3.47;;;3.17;;
14125;SDS011;7141;49.484;11.242;2023-03-20T11:51:07;4.37;;;3.20;;
14125;SDS011;7141;49.484;11.242;2023-03-20T11:58:35;4.03;;;3.30;;
14125;SDS011;7141;49.484;11.242;2023-03-20T12:01:02;3.53;;;3.13;;
14125;SDS011;7141;49.484;11.242;2023-03-20T12:03:33;5.40;;;3.57;;
14125;SDS011;7141;49.484;11.242;2023-03-20T12:06:01;4.33;;;3.23;;
14125;SDS011;7141;49.484;11.242;2023-03-20T12:08:30;3.73;;;3.33;;
14125;SDS011;7141;49.484;11.242;2023-03-20T12:11:02;3.87;;;3.20;;
14125;SDS011;7141;49.484;11.242;2023-03-20T12:13:31;4.07;;;3.50;;
14125;SDS011;7141;49.484;11.242;2023-03-20T12:16:00;4.77;;;3.20;;
14125;SDS011;7141;49.484;11.242;2023-03-20T12:18:44;4.30;;;3.57;;
14125;SDS011;7141;49.484;11.242;2023-03-20T12:23:47;3.73;;;3.30;;
14125;SDS011;7141;49.484;11.242;2023-03-20T12:26:20;5.17;;;3.50;;
14125;SDS011;7141;49.484;11.242;2023-03-20T12:28:52;4.70;;;4.07;;
14125;SDS011;7141;49.484;11.242;2023-03-20T12:36:16;3.43;;;3.00;;
14125;SDS011;7141;49.484;11.242;2023-03-20T12:38:43;4.03;;;3.40;;
14125;SDS011;7141;49.484;11.242;2023-03-20T12:41:28;5.47;;;3.93;;
14125;SDS011;7141;49.484;11.242;2023-03-20T12:44:15;4.90;;;3.77;;
14125;SDS011;7141;49.484;11.242;2023-03-20T12:46:43;3.60;;;3.30;;
14125;SDS011;7141;49.484;11.242;2023-03-20T12:51:56;5.37;;;3.77;;
14125;SDS011;7141;49.484;11.242;2023-03-20T12:54:33;5.37;;;3.60;;
14125;SDS011;7141;49.484;11.242;2023-03-20T12:57:26;4.93;;;3.43;;
14125;SDS011;7141;49.484;11.242;2023-03-20T12:59:51;5.87;;;4.13;;
14125;SDS011;7141;49.484;11.242;2023-03-20T13:19:57;3.80;;;3.33;;
14125;SDS011;7141;49.484;11.242;2023-03-20T13:22:29;5.00;;;3.23;;
14125;SDS011;7141;49.484;11.242;2023-03-20T13:25:19;4.60;;;3.67;;
14125;SDS011;7141;49.484;11.242;2023-03-20T13:28:09;8.07;;;5.37;;
14125;SDS011;7141;49.484;11.242;2023-03-20T13:31:14;6.63;;;5.47;;
14125;SDS011;7141;49.484;11.242;2023-03-20T13:33:39;6.03;;;3.87;;
14125;SDS011;7141;49.484;11.242;2023-03-20T13:38:44;4.97;;;3.90;;
14125;SDS011;7141;49.484;11.242;2023-03-20T13:41:11;4.73;;;3.40;;
14125;SDS011;7141;49.484;11.242;2023-03-20T13:43:39;4.87;;;3.77;;
14125;SDS011;7141;49.484;11.242;2023-03-20T13:46:09;5.73;;;3.73;;
14125;SDS011;7141;49.484;11.242;2023-03-20T13:48:39;3.73;;;3.37;;
14125;SDS011;7141;49.484;11.242;2023-03-20T13:53:46;4.57;;;3.90;;
14125;SDS011;7141;49.484;11.242;2023-03-20T13:56:19;5.83;;;3.90;;
14125;SDS011;7141;49.484;11.242;2023-03-20T14:01:16;3.87;;;3.47;;
14125;SDS011;7141;49.484;11.242;2023-03-20T14:03:44;5.90;;;4.10;;
14125;SDS011;7141;49.484;11.242;2023-03-20T14:08:54;4.77;;;4.17;;
14125;SDS011;7141;49.484;11.242;2023-03-20T14:13:52;4.03;;;3.63;;
14125;SDS011;7141;49.484;11.242;2023-03-20T14:16:19;5.53;;;3.97;;
14125;SDS011;7141;49.484;11.242;2023-03-20T14:18:49;4.90;;;3.87;;
14125;SDS011;7141;49.484;11.242;2023-03-20T14:21:19;5.13;;;4.03;;
14125;SDS011;7141;49.484;11.242;2023-03-20T14:23:49;4.97;;;4.00;;
14125;SDS011;7141;49.484;11.242;2023-03-20T14:28:51;4.90;;;3.73;;
14125;SDS011;7141;49.484;11.242;2023-03-20T14:33:43;5.77;;;3.93;;
14125;SDS011;7141;49.484;11.242;2023-03-20T14:36:19;5.87;;;3.83;;
14125;SDS011;7141;49.484;11.242;2023-03-20T14:38:48;5.53;;;4.00;;
14125;SDS011;7141;49.484;11.242;2023-03-20T14:49:23;5.60;;;3.00;;
14125;SDS011;7141;49.484;11.242;2023-03-20T14:51:52;4.53;;;3.83;;
14125;SDS011;7141;49.484;11.242;2023-03-20T14:56:47;5.40;;;3.43;;
14125;SDS011;7141;49.484;11.242;2023-03-20T14:59:14;9.23;;;6.10;;
14125;SDS011;7141;49.484;11.242;2023-03-20T15:06:41;5.23;;;3.70;;
14125;SDS011;7141;49.484;11.242;2023-03-20T15:09:09;4.40;;;3.73;;
14125;SDS011;7141;49.484;11.242;2023-03-20T15:11:36;4.73;;;3.90;;
14125;SDS011;7141;49.484;11.242;2023-03-20T15:14:03;6.13;;;4.10;;
14125;SDS011;7141;49.484;11.242;2023-03-20T15:16:31;5.73;;;4.43;;
14125;SDS011;7141;49.484;11.242;2023-03-20T15:18:58;4.70;;;3.67;;
14125;SDS011;7141;49.484;11.242;2023-03-20T15:21:32;6.10;;;4.20;;
14125;SDS011;7141;49.484;11.242;2023-03-20T15:23:58;5.00;;;4.13;;
14125;SDS011;7141;49.484;11.242;2023-03-20T15:26:25;5.90;;;4.07;;
14125;SDS011;7141;49.484;11.242;2023-03-20T15:29:01;7.30;;;4.47;;
14125;SDS011;7141;49.484;11.242;2023-03-20T15:31:29;6.10;;;4.80;;
14125;SDS011;7141;49.484;11.242;2023-03-20T15:33:57;6.60;;;4.83;;
14125;SDS011;7141;49.484;11.242;2023-03-20T15:36:27;7.83;;;4.17;;
14125;SDS011;7141;49.484;11.242;2023-03-20T15:39:00;5.90;;;4.67;;
14125;SDS011;7141;49.484;11.242;2023-03-20T15:41:29;5.77;;;4.60;;
14125;SDS011;7141;49.484;11.242;2023-03-20T15:44:02;7.80;;;4.33;;
14125;SDS011;7141;49.484;11.242;2023-03-20T15:46:28;5.93;;;4.63;;
14125;SDS011;7141;49.484;11.242;2023-03-20T15:48:55;5.70;;;4.20;;
14125;SDS011;7141;49.484;11.242;2023-03-20T15:51:24;6.63;;;5.20;;
14125;SDS011;7141;49.484;11.242;2023-03-20T15:53:51;6.57;;;5.03;;
14125;SDS011;7141;49.484;11.242;2023-03-20T15:56:17;6.70;;;5.30;;
14125;SDS011;7141;49.484;11.242;2023-03-20T15:58:45;7.37;;;5.27;;
14125;SDS011;7141;49.484;11.242;2023-03-20T16:01:14;8.70;;;5.73;;
14125;SDS011;7141;49.484;11.242;2023-03-20T16:03:41;7.03;;;5.37;;
14125;SDS011;7141;49.484;11.242;2023-03-20T16:06:08;7.33;;;5.63;;
14125;SDS011;7141;49.484;11.242;2023-03-20T16:08:35;6.97;;;5.37;;
14125;SDS011;7141;49.484;11.242;2023-03-20T16:11:06;9.30;;;5.87;;
14125;SDS011;7141;49.484;11.242;2023-03-20T16:13:37;8.63;;;6.13;;
14125;SDS011;7141;49.484;11.242;2023-03-20T16:16:04;8.63;;;5.70;;
14125;SDS011;7141;49.484;11.242;2023-03-20T16:18:32;7.70;;;5.57;;
14125;SDS011;7141;49.484;11.242;2023-03-20T16:21:01;9.00;;;6.63;;
14125;SDS011;7141;49.484;11.242;2023-03-20T16:23:36;8.30;;;6.50;;
14125;SDS011;7141;49.484;11.242;2023-03-20T16:26:04;8.57;;;6.23;;
14125;SDS011;7141;49.484;11.242;2023-03-20T16:28:30;8.07;;;5.97;;
14125;SDS011;7141;49.484;11.242;2023-03-20T16:31:15;8.27;;;6.13;;
14125;SDS011;7141;49.484;11.242;2023-03-20T16:33:42;7.77;;;6.00;;
14125;SDS011;7141;49.484;11.242;2023-03-20T16:36:14;9.27;;;6.80;;
14125;SDS011;7141;49.484;11.242;2023-03-20T16:38:52;10.33;;;6.63;;
14125;SDS011;7141;49.484;11.242;2023-03-20T16:41:27;8.10;;;6.27;;
14125;SDS011;7141;49.484;11.242;2023-03-20T16:43:54;8.97;;;6.03;;
14125;SDS011;7141;49.484;11.242;2023-03-20T16:46:21;9.00;;;6.57;;
14125;SDS011;7141;49.484;11.242;2023-03-20T16:48:48;9.57;;;6.73;;
14125;SDS011;7141;49.484;11.242;2023-03-20T16:53:44;7.73;;;5.40;;
14125;SDS011;7141;49.484;11.242;2023-03-20T16:56:12;7.97;;;5.77;;
14125;SDS011;7141;49.484;11.242;2023-03-20T16:58:39;9.30;;;5.43;;
14125;SDS011;7141;49.484;11.242;2023-03-20T17:01:07;7.37;;;5.73;;
14125;SDS011;7141;49.484;11.242;2023-03-20T17:06:32;7.63;;;5.60;;
14125;SDS011;7141;49.484;11.242;2023-03-20T17:09:00;8.00;;;5.67;;
14125;SDS011;7141;49.484;11.242;2023-03-20T17:11:32;6.23;;;5.40;;
14125;SDS011;7141;49.484;11.242;2023-03-20T17:13:59;9.03;;;5.80;;
14125;SDS011;7141;49.484;11.242;2023-03-20T17:16:25;8.00;;;6.03;;